sensor_id;sensor_type;location;lat;lon;timestamp;temperature;humidity
21801;DHT22;11062;51.164;16.924;2023-01-16T00:00:20;23.40;35.50
21801;DHT22;11062;51.164;16.924;2023-01-16T00:02:48;23.40;35.10
21801;DHT22;11062;51.164;16.924;2023-01-16T00:05:14;23.50;35.10
21801;DHT22;11062;51.164;16.924;2023-01-16T00:07:40;23.60;35.10
21801;DHT22;11062;51.164;16.924;2023-01-16T00:10:06;23.70;35.10
21801;DHT22;11062;51.164;16.924;2023-01-16T00:12:32;23.80;34.90
21801;DHT22;11062;51.164;16.924;2023-01-16T00:14:58;24.40;35.10
21801;DHT22;11062;51.164;16.924;2023-01-16T00:17:24;23.70;34.70
21801;DHT22;11062;51.164;16.924;2023-01-16T00:19:50;23.90;34.70
21801;DHT22;11062;51.164;16.924;2023-01-16T00:22:15;23.80;34.50
21801;DHT22;11062;51.164;16.924;2023-01-16T00:24:41;23.40;34.60
21801;DHT22;11062;51.164;16.924;2023-01-16T00:27:07;23.30;34.50
21801;DHT22;11062;51.164;16.924;2023-01-16T00:29:34;23.70;34.50
21801;DHT22;11062;51.164;16.924;2023-01-16T00:32:00;24.10;34.60
21801;DHT22;11062;51.164;16.924;2023-01-16T00:34:26;24.20;34.40
21801;DHT22;11062;51.164;16.924;2023-01-16T00:36:52;24.60;34.40
21801;DHT22;11062;51.164;16.924;2023-01-16T00:39:18;24.70;33.90
21801;DHT22;11062;51.164;16.924;2023-01-16T00:41:44;25.10;33.70
21801;DHT22;11062;51.164;16.924;2023-01-16T00:44:10;25.20;33.50
21801;DHT22;11062;51.164;16.924;2023-01-16T00:46:36;25.50;33.40
21801;DHT22;11062;51.164;16.924;2023-01-16T00:49:02;25.40;33.20
21801;DHT22;11062;51.164;16.924;2023-01-16T00:51:28;25.20;33.30
21801;DHT22;11062;51.164;16.924;2023-01-16T00:53:54;25.30;33.40
21801;DHT22;11062;51.164;16.924;2023-01-16T00:56:20;25.30;33.50
21801;DHT22;11062;51.164;16.924;2023-01-16T00:58:45;25.40;33.40
21801;DHT22;11062;51.164;16.924;2023-01-16T01:01:11;25.30;33.40
21801;DHT22;11062;51.164;16.924;2023-01-16T01:03:37;25.10;33.30
21801;DHT22;11062;51.164;16.924;2023-01-16T01:06:08;25.00;33.40
21801;DHT22;11062;51.164;16.924;2023-01-16T01:08:34;25.00;33.60
21801;DHT22;11062;51.164;16.924;2023-01-16T01:11:08;25.00;33.60
21801;DHT22;11062;51.164;16.924;2023-01-16T01:13:35;25.10;33.50
21801;DHT22;11062;51.164;16.924;2023-01-16T01:16:01;25.50;33.50
21801;DHT22;11062;51.164;16.924;2023-01-16T01:18:28;25.70;33.30
21801;DHT22;11062;51.164;16.924;2023-01-16T01:20:54;25.70;33.00
21801;DHT22;11062;51.164;16.924;2023-01-16T01:23:20;25.50;32.90
21801;DHT22;11062;51.164;16.924;2023-01-16T01:25:46;25.70;33.00
21801;DHT22;11062;51.164;16.924;2023-01-16T01:28:12;25.50;33.00
21801;DHT22;11062;51.164;16.924;2023-01-16T01:30:38;25.30;33.20
21801;DHT22;11062;51.164;16.924;2023-01-16T01:33:04;25.20;33.30
21801;DHT22;11062;51.164;16.924;2023-01-16T01:35:30;25.30;33.40
21801;DHT22;11062;51.164;16.924;2023-01-16T01:37:56;24.80;33.10
21801;DHT22;11062;51.164;16.924;2023-01-16T01:40:22;25.30;33.40
21801;DHT22;11062;51.164;16.924;2023-01-16T01:42:47;25.40;33.40
21801;DHT22;11062;51.164;16.924;2023-01-16T01:45:35;25.40;33.30
21801;DHT22;11062;51.164;16.924;2023-01-16T01:51:02;25.60;33.00
21801;DHT22;11062;51.164;16.924;2023-01-16T01:53:50;25.90;32.90
21801;DHT22;11062;51.164;16.924;2023-01-16T01:56:28;25.90;32.90
21801;DHT22;11062;51.164;16.924;2023-01-16T01:58:57;25.90;32.80
21801;DHT22;11062;51.164;16.924;2023-01-16T02:01:25;25.60;32.70
21801;DHT22;11062;51.164;16.924;2023-01-16T02:03:57;25.60;33.00
21801;DHT22;11062;51.164;16.924;2023-01-16T02:06:36;25.50;33.00
21801;DHT22;11062;51.164;16.924;2023-01-16T02:09:04;25.70;33.10
21801;DHT22;11062;51.164;16.924;2023-01-16T02:11:35;25.10;33.10
21801;DHT22;11062;51.164;16.924;2023-01-16T02:14:08;25.30;33.40
21801;DHT22;11062;51.164;16.924;2023-01-16T02:16:34;25.30;33.30
21801;DHT22;11062;51.164;16.924;2023-01-16T02:33:03;25.20;33.50
21801;DHT22;11062;51.164;16.924;2023-01-16T02:41:16;25.00;33.60
21801;DHT22;11062;51.164;16.924;2023-01-16T02:51:59;25.00;33.90
21801;DHT22;11062;51.164;16.924;2023-01-16T02:54:59;24.90;33.80
21801;DHT22;11062;51.164;16.924;2023-01-16T02:57:42;24.80;33.90
21801;DHT22;11062;51.164;16.924;2023-01-16T03:00:10;24.60;34.20
21801;DHT22;11062;51.164;16.924;2023-01-16T03:02:37;24.20;34.10
21801;DHT22;11062;51.164;16.924;2023-01-16T03:05:04;24.20;34.50
21801;DHT22;11062;51.164;16.924;2023-01-16T03:07:58;24.20;34.60
21801;DHT22;11062;51.164;16.924;2023-01-16T03:15:52;23.90;34.90
21801;DHT22;11062;51.164;16.924;2023-01-16T03:21:11;24.10;34.70
21801;DHT22;11062;51.164;16.924;2023-01-16T03:23:51;24.40;34.50
21801;DHT22;11062;51.164;16.924;2023-01-16T03:34:42;25.40;33.60
21801;DHT22;11062;51.164;16.924;2023-01-16T03:37:19;25.40;33.40
21801;DHT22;11062;51.164;16.924;2023-01-16T03:39:54;25.20;33.40
21801;DHT22;11062;51.164;16.924;2023-01-16T03:45:55;25.10;33.20
21801;DHT22;11062;51.164;16.924;2023-01-16T03:48:34;25.30;33.40
21801;DHT22;11062;51.164;16.924;2023-01-16T03:51:05;25.40;33.40
21801;DHT22;11062;51.164;16.924;2023-01-16T03:53:36;25.30;33.50
21801;DHT22;11062;51.164;16.924;2023-01-16T03:58:42;25.50;33.40
21801;DHT22;11062;51.164;16.924;2023-01-16T04:01:26;25.20;33.40
21801;DHT22;11062;51.164;16.924;2023-01-16T04:06:32;25.20;33.60
21801;DHT22;11062;51.164;16.924;2023-01-16T04:09:03;25.00;33.60
21801;DHT22;11062;51.164;16.924;2023-01-16T04:11:31;25.10;33.70
21801;DHT22;11062;51.164;16.924;2023-01-16T04:14:00;25.00;33.80
21801;DHT22;11062;51.164;16.924;2023-01-16T04:16:29;24.80;33.80
21801;DHT22;11062;51.164;16.924;2023-01-16T04:18:57;24.60;34.00
21801;DHT22;11062;51.164;16.924;2023-01-16T04:21:29;24.40;34.10
21801;DHT22;11062;51.164;16.924;2023-01-16T04:23:57;24.40;34.30
21801;DHT22;11062;51.164;16.924;2023-01-16T04:26:25;24.20;34.20
21801;DHT22;11062;51.164;16.924;2023-01-16T04:28:55;24.10;34.60
21801;DHT22;11062;51.164;16.924;2023-01-16T04:31:24;24.50;34.50
21801;DHT22;11062;51.164;16.924;2023-01-16T04:33:53;24.80;34.20
21801;DHT22;11062;51.164;16.924;2023-01-16T04:36:18;25.00;33.90
21801;DHT22;11062;51.164;16.924;2023-01-16T04:38:45;24.80;33.50
21801;DHT22;11062;51.164;16.924;2023-01-16T04:41:11;24.90;33.80
21801;DHT22;11062;51.164;16.924;2023-01-16T04:43:36;24.50;33.90
21801;DHT22;11062;51.164;16.924;2023-01-16T04:46:02;24.20;34.30
21801;DHT22;11062;51.164;16.924;2023-01-16T04:48:28;24.30;34.40
21801;DHT22;11062;51.164;16.924;2023-01-16T04:50:54;24.50;34.40
21801;DHT22;11062;51.164;16.924;2023-01-16T04:53:20;24.40;34.30
21801;DHT22;11062;51.164;16.924;2023-01-16T04:55:46;24.40;34.10
21801;DHT22;11062;51.164;16.924;2023-01-16T04:58:12;24.70;34.10
21801;DHT22;11062;51.164;16.924;2023-01-16T05:00:38;24.90;33.70
21801;DHT22;11062;51.164;16.924;2023-01-16T05:03:04;25.10;33.60
21801;DHT22;11062;51.164;16.924;2023-01-16T05:05:30;25.00;33.40
21801;DHT22;11062;51.164;16.924;2023-01-16T05:07:55;24.90;33.50
21801;DHT22;11062;51.164;16.924;2023-01-16T05:10:45;24.80;33.50
21801;DHT22;11062;51.164;16.924;2023-01-16T05:13:11;24.70;33.70
21801;DHT22;11062;51.164;16.924;2023-01-16T05:15:37;24.80;33.80
21801;DHT22;11062;51.164;16.924;2023-01-16T05:18:03;24.90;33.70
21801;DHT22;11062;51.164;16.924;2023-01-16T05:20:29;24.80;33.70
21801;DHT22;11062;51.164;16.924;2023-01-16T05:22:55;24.80;33.90
21801;DHT22;11062;51.164;16.924;2023-01-16T05:25:20;24.20;34.10
21801;DHT22;11062;51.164;16.924;2023-01-16T05:27:50;24.20;34.40
21801;DHT22;11062;51.164;16.924;2023-01-16T05:30:16;24.40;34.30
21801;DHT22;11062;51.164;16.924;2023-01-16T05:32:43;24.70;34.20
21801;DHT22;11062;51.164;16.924;2023-01-16T05:35:09;24.40;33.90
21801;DHT22;11062;51.164;16.924;2023-01-16T05:37:35;24.40;34.00
21801;DHT22;11062;51.164;16.924;2023-01-16T05:40:02;24.50;34.00
21801;DHT22;11062;51.164;16.924;2023-01-16T05:42:28;24.60;34.00
21801;DHT22;11062;51.164;16.924;2023-01-16T05:44:54;24.40;34.00
21801;DHT22;11062;51.164;16.924;2023-01-16T05:47:20;24.70;33.90
21801;DHT22;11062;51.164;16.924;2023-01-16T05:49:47;24.80;33.70
21801;DHT22;11062;51.164;16.924;2023-01-16T05:52:13;25.00;33.50
21801;DHT22;11062;51.164;16.924;2023-01-16T05:54:39;25.00;33.30
21801;DHT22;11062;51.164;16.924;2023-01-16T05:57:05;25.10;33.30
21801;DHT22;11062;51.164;16.924;2023-01-16T05:59:31;25.40;33.20
21801;DHT22;11062;51.164;16.924;2023-01-16T06:01:57;25.70;33.00
21801;DHT22;11062;51.164;16.924;2023-01-16T06:04:23;25.70;32.70
21801;DHT22;11062;51.164;16.924;2023-01-16T06:06:49;25.90;32.60
21801;DHT22;11062;51.164;16.924;2023-01-16T06:09:15;26.00;32.50
21801;DHT22;11062;51.164;16.924;2023-01-16T06:11:41;26.10;32.30
21801;DHT22;11062;51.164;16.924;2023-01-16T06:14:07;26.20;32.10
21801;DHT22;11062;51.164;16.924;2023-01-16T06:16:34;26.20;32.10
21801;DHT22;11062;51.164;16.924;2023-01-16T06:19:01;26.20;32.10
21801;DHT22;11062;51.164;16.924;2023-01-16T06:21:27;26.00;32.20
21801;DHT22;11062;51.164;16.924;2023-01-16T06:23:53;25.50;32.50
21801;DHT22;11062;51.164;16.924;2023-01-16T06:26:19;25.50;32.80
21801;DHT22;11062;51.164;16.924;2023-01-16T06:28:46;25.50;32.90
21801;DHT22;11062;51.164;16.924;2023-01-16T06:31:12;25.30;33.00
21801;DHT22;11062;51.164;16.924;2023-01-16T06:33:38;24.80;33.30
21801;DHT22;11062;51.164;16.924;2023-01-16T06:36:04;24.80;33.70
21801;DHT22;11062;51.164;16.924;2023-01-16T06:38:30;24.80;33.70
21801;DHT22;11062;51.164;16.924;2023-01-16T06:40:56;24.80;33.70
21801;DHT22;11062;51.164;16.924;2023-01-16T06:43:23;24.90;33.70
21801;DHT22;11062;51.164;16.924;2023-01-16T06:45:49;25.00;33.70
21801;DHT22;11062;51.164;16.924;2023-01-16T06:48:16;25.10;33.50
21801;DHT22;11062;51.164;16.924;2023-01-16T06:50:42;25.30;33.40
21801;DHT22;11062;51.164;16.924;2023-01-16T06:53:07;25.40;33.20
21801;DHT22;11062;51.164;16.924;2023-01-16T06:55:33;25.60;33.10
21801;DHT22;11062;51.164;16.924;2023-01-16T06:57:59;25.80;32.90
21801;DHT22;11062;51.164;16.924;2023-01-16T07:00:25;25.90;32.70
21801;DHT22;11062;51.164;16.924;2023-01-16T07:02:52;25.60;32.60
21801;DHT22;11062;51.164;16.924;2023-01-16T07:05:21;25.40;32.80
21801;DHT22;11062;51.164;16.924;2023-01-16T07:07:48;24.80;33.10
21801;DHT22;11062;51.164;16.924;2023-01-16T07:10:13;23.80;33.80
21801;DHT22;11062;51.164;16.924;2023-01-16T07:12:39;23.60;34.80
21801;DHT22;11062;51.164;16.924;2023-01-16T07:15:06;23.10;35.30
21801;DHT22;11062;51.164;16.924;2023-01-16T07:17:51;22.60;35.60
21801;DHT22;11062;51.164;16.924;2023-01-16T07:20:36;22.40;36.20
21801;DHT22;11062;51.164;16.924;2023-01-16T07:23:23;22.20;36.50
21801;DHT22;11062;51.164;16.924;2023-01-16T07:25:51;22.60;36.60
21801;DHT22;11062;51.164;16.924;2023-01-16T07:28:18;22.90;36.30
21801;DHT22;11062;51.164;16.924;2023-01-16T07:30:45;22.70;36.10
21801;DHT22;11062;51.164;16.924;2023-01-16T07:33:11;23.30;36.10
21801;DHT22;11062;51.164;16.924;2023-01-16T07:35:37;23.20;35.60
21801;DHT22;11062;51.164;16.924;2023-01-16T07:38:03;23.40;35.40
21801;DHT22;11062;51.164;16.924;2023-01-16T07:40:29;23.70;35.10
21801;DHT22;11062;51.164;16.924;2023-01-16T07:42:55;24.10;34.90
21801;DHT22;11062;51.164;16.924;2023-01-16T07:45:23;23.90;34.80
21801;DHT22;11062;51.164;16.924;2023-01-16T07:47:48;24.00;34.70
21801;DHT22;11062;51.164;16.924;2023-01-16T07:50:15;24.10;34.70
21801;DHT22;11062;51.164;16.924;2023-01-16T07:52:42;23.40;34.70
21801;DHT22;11062;51.164;16.924;2023-01-16T07:55:09;23.40;35.20
21801;DHT22;11062;51.164;16.924;2023-01-16T07:57:36;23.50;35.50
21801;DHT22;11062;51.164;16.924;2023-01-16T08:00:04;24.00;35.30
21801;DHT22;11062;51.164;16.924;2023-01-16T08:02:30;24.50;34.60
21801;DHT22;11062;51.164;16.924;2023-01-16T08:04:56;24.60;34.10
21801;DHT22;11062;51.164;16.924;2023-01-16T08:07:21;24.80;34.20
21801;DHT22;11062;51.164;16.924;2023-01-16T08:09:47;25.00;33.80
21801;DHT22;11062;51.164;16.924;2023-01-16T08:12:16;25.10;33.70
21801;DHT22;11062;51.164;16.924;2023-01-16T08:14:42;25.10;33.40
21801;DHT22;11062;51.164;16.924;2023-01-16T08:17:08;25.30;33.50
21801;DHT22;11062;51.164;16.924;2023-01-16T08:19:36;25.30;33.20
21801;DHT22;11062;51.164;16.924;2023-01-16T08:22:05;25.30;33.20
21801;DHT22;11062;51.164;16.924;2023-01-16T08:24:35;24.90;33.50
21801;DHT22;11062;51.164;16.924;2023-01-16T08:27:04;24.30;33.70
21801;DHT22;11062;51.164;16.924;2023-01-16T08:29:34;24.50;34.00
21801;DHT22;11062;51.164;16.924;2023-01-16T08:32:01;24.70;34.00
21801;DHT22;11062;51.164;16.924;2023-01-16T08:34:30;25.00;33.70
21801;DHT22;11062;51.164;16.924;2023-01-16T08:37:00;25.30;33.50
21801;DHT22;11062;51.164;16.924;2023-01-16T08:39:28;25.50;33.10
21801;DHT22;11062;51.164;16.924;2023-01-16T08:41:54;25.50;32.70
21801;DHT22;11062;51.164;16.924;2023-01-16T08:44:38;25.30;32.60
21801;DHT22;11062;51.164;16.924;2023-01-16T08:47:24;25.30;32.60
21801;DHT22;11062;51.164;16.924;2023-01-16T08:50:13;25.50;32.70
21801;DHT22;11062;51.164;16.924;2023-01-16T08:52:58;25.20;32.70
21801;DHT22;11062;51.164;16.924;2023-01-16T08:55:24;24.80;32.80
21801;DHT22;11062;51.164;16.924;2023-01-16T08:57:51;24.70;33.20
21801;DHT22;11062;51.164;16.924;2023-01-16T09:00:17;22.30;32.30
21801;DHT22;11062;51.164;16.924;2023-01-16T09:02:45;23.10;34.30
21801;DHT22;11062;51.164;16.924;2023-01-16T09:05:12;22.40;35.00
21801;DHT22;11062;51.164;16.924;2023-01-16T09:07:39;22.70;36.80
21801;DHT22;11062;51.164;16.924;2023-01-16T09:10:06;22.90;36.00
21801;DHT22;11062;51.164;16.924;2023-01-16T09:12:32;23.30;35.60
21801;DHT22;11062;51.164;16.924;2023-01-16T09:15:16;23.50;35.10
21801;DHT22;11062;51.164;16.924;2023-01-16T09:17:42;23.90;35.00
21801;DHT22;11062;51.164;16.924;2023-01-16T09:20:09;24.40;35.00
21801;DHT22;11062;51.164;16.924;2023-01-16T09:22:35;24.20;34.20
21801;DHT22;11062;51.164;16.924;2023-01-16T09:25:01;23.70;34.50
21801;DHT22;11062;51.164;16.924;2023-01-16T09:27:27;23.20;34.70
21801;DHT22;11062;51.164;16.924;2023-01-16T09:29:53;22.80;35.40
21801;DHT22;11062;51.164;16.924;2023-01-16T09:32:19;22.60;35.60
21801;DHT22;11062;51.164;16.924;2023-01-16T09:34:45;22.00;35.90
21801;DHT22;11062;51.164;16.924;2023-01-16T09:37:13;22.30;36.10
21801;DHT22;11062;51.164;16.924;2023-01-16T09:39:49;22.70;36.50
21801;DHT22;11062;51.164;16.924;2023-01-16T09:42:46;22.90;35.50
21801;DHT22;11062;51.164;16.924;2023-01-16T09:45:34;23.00;35.50
21801;DHT22;11062;51.164;16.924;2023-01-16T09:48:29;23.50;35.30
21801;DHT22;11062;51.164;16.924;2023-01-16T09:51:04;23.90;34.90
21801;DHT22;11062;51.164;16.924;2023-01-16T09:54:23;24.70;33.80
21801;DHT22;11062;51.164;16.924;2023-01-16T09:56:48;25.60;33.60
21801;DHT22;11062;51.164;16.924;2023-01-16T09:59:54;25.80;33.20
21801;DHT22;11062;51.164;16.924;2023-01-16T10:02:31;26.30;32.70
21801;DHT22;11062;51.164;16.924;2023-01-16T10:05:09;26.30;32.10
21801;DHT22;11062;51.164;16.924;2023-01-16T10:07:47;26.50;32.40
21801;DHT22;11062;51.164;16.924;2023-01-16T10:10:36;25.20;31.90
21801;DHT22;11062;51.164;16.924;2023-01-16T10:32:12;25.60;32.70
21801;DHT22;11062;51.164;16.924;2023-01-16T10:35:32;26.10;32.40
21801;DHT22;11062;51.164;16.924;2023-01-16T10:37:51;26.00;31.50
21801;DHT22;11062;51.164;16.924;2023-01-16T10:42:45;26.20;31.80
21801;DHT22;11062;51.164;16.924;2023-01-16T10:45:34;26.70;32.00
21801;DHT22;11062;51.164;16.924;2023-01-16T10:48:20;27.20;31.80
21801;DHT22;11062;51.164;16.924;2023-01-16T10:51:06;27.70;31.20
21801;DHT22;11062;51.164;16.924;2023-01-16T10:53:35;27.90;30.80
21801;DHT22;11062;51.164;16.924;2023-01-16T10:56:01;28.10;30.00
21801;DHT22;11062;51.164;16.924;2023-01-16T10:58:30;27.70;29.80
21801;DHT22;11062;51.164;16.924;2023-01-16T11:01:15;27.40;30.00
21801;DHT22;11062;51.164;16.924;2023-01-16T11:03:50;26.40;29.80
21801;DHT22;11062;51.164;16.924;2023-01-16T11:06:26;26.50;30.50
21801;DHT22;11062;51.164;16.924;2023-01-16T11:08:59;25.90;30.60
21801;DHT22;11062;51.164;16.924;2023-01-16T11:11:27;25.40;30.80
21801;DHT22;11062;51.164;16.924;2023-01-16T11:14:21;25.30;31.40
21801;DHT22;11062;51.164;16.924;2023-01-16T11:17:28;24.90;31.50
21801;DHT22;11062;51.164;16.924;2023-01-16T11:20:18;25.20;32.10
21801;DHT22;11062;51.164;16.924;2023-01-16T11:22:47;25.70;32.00
21801;DHT22;11062;51.164;16.924;2023-01-16T11:25:16;25.50;30.30
21801;DHT22;11062;51.164;16.924;2023-01-16T11:27:44;25.60;29.90
21801;DHT22;11062;51.164;16.924;2023-01-16T11:30:19;25.00;30.20
21801;DHT22;11062;51.164;16.924;2023-01-16T11:32:47;24.90;31.00
21801;DHT22;11062;51.164;16.924;2023-01-16T11:35:16;24.70;31.00
21801;DHT22;11062;51.164;16.924;2023-01-16T11:37:44;24.90;31.40
21801;DHT22;11062;51.164;16.924;2023-01-16T11:40:22;25.30;31.10
21801;DHT22;11062;51.164;16.924;2023-01-16T11:42:54;25.70;30.70
21801;DHT22;11062;51.164;16.924;2023-01-16T11:45:47;25.70;30.50
21801;DHT22;11062;51.164;16.924;2023-01-16T11:48:44;25.90;30.60
21801;DHT22;11062;51.164;16.924;2023-01-16T11:51:19;25.80;30.30
21801;DHT22;11062;51.164;16.924;2023-01-16T11:53:48;26.30;30.40
21801;DHT22;11062;51.164;16.924;2023-01-16T11:59:18;27.20;30.40
21801;DHT22;11062;51.164;16.924;2023-01-16T12:01:52;26.50;29.60
21801;DHT22;11062;51.164;16.924;2023-01-16T12:05:02;26.40;29.60
21801;DHT22;11062;51.164;16.924;2023-01-16T12:11:01;27.70;29.50
21801;DHT22;11062;51.164;16.924;2023-01-16T12:20:02;28.10;29.40
21801;DHT22;11062;51.164;16.924;2023-01-16T12:25:32;29.20;29.60
21801;DHT22;11062;51.164;16.924;2023-01-16T12:42:59;31.90;27.60
21801;DHT22;11062;51.164;16.924;2023-01-16T12:46:13;32.20;27.20
21801;DHT22;11062;51.164;16.924;2023-01-16T12:51:55;32.30;26.60
21801;DHT22;11062;51.164;16.924;2023-01-16T13:00:36;32.80;27.10
21801;DHT22;11062;51.164;16.924;2023-01-16T13:03:32;33.00;26.70
21801;DHT22;11062;51.164;16.924;2023-01-16T13:06:16;33.00;26.50
21801;DHT22;11062;51.164;16.924;2023-01-16T13:08:52;33.10;26.60
21801;DHT22;11062;51.164;16.924;2023-01-16T13:11:49;33.10;26.50
21801;DHT22;11062;51.164;16.924;2023-01-16T13:14:36;33.40;26.50
21801;DHT22;11062;51.164;16.924;2023-01-16T13:17:08;33.60;26.50
21801;DHT22;11062;51.164;16.924;2023-01-16T13:19:42;33.70;26.30
21801;DHT22;11062;51.164;16.924;2023-01-16T13:25:14;33.90;26.30
21801;DHT22;11062;51.164;16.924;2023-01-16T13:27:50;33.60;26.00
21801;DHT22;11062;51.164;16.924;2023-01-16T13:30:23;33.60;26.00
21801;DHT22;11062;51.164;16.924;2023-01-16T13:33:17;33.70;26.10
21801;DHT22;11062;51.164;16.924;2023-01-16T13:36:29;33.40;25.90
21801;DHT22;11062;51.164;16.924;2023-01-16T13:40:04;33.50;26.00
21801;DHT22;11062;51.164;16.924;2023-01-16T13:42:10;33.50;25.90
21801;DHT22;11062;51.164;16.924;2023-01-16T13:44:41;33.60;25.90
21801;DHT22;11062;51.164;16.924;2023-01-16T13:47:29;33.40;25.80
21801;DHT22;11062;51.164;16.924;2023-01-16T13:50:26;33.60;26.10
21801;DHT22;11062;51.164;16.924;2023-01-16T13:53:00;33.30;26.00
21801;DHT22;11062;51.164;16.924;2023-01-16T13:55:33;33.40;26.10
21801;DHT22;11062;51.164;16.924;2023-01-16T13:58:22;33.30;26.00
21801;DHT22;11062;51.164;16.924;2023-01-16T14:00:58;33.40;25.80
21801;DHT22;11062;51.164;16.924;2023-01-16T14:03:27;33.10;25.70
21801;DHT22;11062;51.164;16.924;2023-01-16T14:14:46;32.60;26.00
21801;DHT22;11062;51.164;16.924;2023-01-16T14:23:25;31.30;26.50
21801;DHT22;11062;51.164;16.924;2023-01-16T14:29:34;31.30;27.00
21801;DHT22;11062;51.164;16.924;2023-01-16T14:32:14;31.40;26.80
21801;DHT22;11062;51.164;16.924;2023-01-16T14:34:54;31.30;26.80
21801;DHT22;11062;51.164;16.924;2023-01-16T14:40:00;31.20;27.10
21801;DHT22;11062;51.164;16.924;2023-01-16T14:42:36;31.10;27.10
21801;DHT22;11062;51.164;16.924;2023-01-16T14:45:27;31.20;27.30
21801;DHT22;11062;51.164;16.924;2023-01-16T14:48:15;31.10;27.30
21801;DHT22;11062;51.164;16.924;2023-01-16T14:51:33;31.00;27.40
21801;DHT22;11062;51.164;16.924;2023-01-16T15:08:36;29.40;29.20
21801;DHT22;11062;51.164;16.924;2023-01-16T15:12:27;29.30;29.40
21801;DHT22;11062;51.164;16.924;2023-01-16T15:23:22;28.30;30.00
21801;DHT22;11062;51.164;16.924;2023-01-16T15:35:24;27.70;30.90
21801;DHT22;11062;51.164;16.924;2023-01-16T15:38:51;27.50;31.10
21801;DHT22;11062;51.164;16.924;2023-01-16T15:41:47;27.50;31.20
21801;DHT22;11062;51.164;16.924;2023-01-16T15:44:38;27.40;31.50
21801;DHT22;11062;51.164;16.924;2023-01-16T15:53:42;27.00;31.70
21801;DHT22;11062;51.164;16.924;2023-01-16T15:56:24;27.10;31.80
21801;DHT22;11062;51.164;16.924;2023-01-16T15:58:53;27.20;31.70
21801;DHT22;11062;51.164;16.924;2023-01-16T16:01:29;27.20;31.80
21801;DHT22;11062;51.164;16.924;2023-01-16T16:03:58;27.20;31.90
21801;DHT22;11062;51.164;16.924;2023-01-16T16:06:25;27.00;32.00
21801;DHT22;11062;51.164;16.924;2023-01-16T16:08:54;27.00;32.00
21801;DHT22;11062;51.164;16.924;2023-01-16T16:11:29;27.00;32.10
21801;DHT22;11062;51.164;16.924;2023-01-16T16:14:31;26.90;32.10
21801;DHT22;11062;51.164;16.924;2023-01-16T16:17:28;26.50;32.20
21801;DHT22;11062;51.164;16.924;2023-01-16T16:20:36;26.50;32.50
21801;DHT22;11062;51.164;16.924;2023-01-16T16:28:36;26.70;32.80
21801;DHT22;11062;51.164;16.924;2023-01-16T16:34:04;26.50;32.70
21801;DHT22;11062;51.164;16.924;2023-01-16T16:36:38;26.30;32.70
21801;DHT22;11062;51.164;16.924;2023-01-16T16:45:11;25.20;33.60
21801;DHT22;11062;51.164;16.924;2023-01-16T16:47:47;24.60;34.10
21801;DHT22;11062;51.164;16.924;2023-01-16T16:50:37;24.10;34.30
21801;DHT22;11062;51.164;16.924;2023-01-16T16:53:26;23.50;35.10
21801;DHT22;11062;51.164;16.924;2023-01-16T16:56:09;23.40;35.80
21801;DHT22;11062;51.164;16.924;2023-01-16T16:58:44;23.40;36.20
21801;DHT22;11062;51.164;16.924;2023-01-16T17:01:16;23.40;36.30
21801;DHT22;11062;51.164;16.924;2023-01-16T17:03:57;23.60;35.90
21801;DHT22;11062;51.164;16.924;2023-01-16T17:06:33;23.40;36.10
21801;DHT22;11062;51.164;16.924;2023-01-16T17:09:01;23.30;36.30
21801;DHT22;11062;51.164;16.924;2023-01-16T17:11:29;23.10;36.50
21801;DHT22;11062;51.164;16.924;2023-01-16T17:13:55;23.20;36.50
21801;DHT22;11062;51.164;16.924;2023-01-16T17:16:26;23.50;36.40
21801;DHT22;11062;51.164;16.924;2023-01-16T17:19:00;23.60;36.20
21801;DHT22;11062;51.164;16.924;2023-01-16T17:21:26;23.80;36.20
21801;DHT22;11062;51.164;16.924;2023-01-16T17:23:52;23.90;35.70
21801;DHT22;11062;51.164;16.924;2023-01-16T17:26:18;24.00;35.70
21801;DHT22;11062;51.164;16.924;2023-01-16T17:28:45;24.40;35.40
21801;DHT22;11062;51.164;16.924;2023-01-16T17:31:13;24.60;35.00
21801;DHT22;11062;51.164;16.924;2023-01-16T17:33:40;24.60;34.80
21801;DHT22;11062;51.164;16.924;2023-01-16T17:36:09;24.60;35.00
21801;DHT22;11062;51.164;16.924;2023-01-16T17:38:42;23.70;35.20
21801;DHT22;11062;51.164;16.924;2023-01-16T17:41:25;23.60;35.90
21801;DHT22;11062;51.164;16.924;2023-01-16T17:44:24;23.90;35.90
21801;DHT22;11062;51.164;16.924;2023-01-16T17:47:09;24.20;35.70
21801;DHT22;11062;51.164;16.924;2023-01-16T17:49:36;24.50;35.40
21801;DHT22;11062;51.164;16.924;2023-01-16T17:52:25;24.70;35.00
21801;DHT22;11062;51.164;16.924;2023-01-16T17:54:52;25.00;34.70
21801;DHT22;11062;51.164;16.924;2023-01-16T17:57:37;24.80;34.70
21801;DHT22;11062;51.164;16.924;2023-01-16T18:00:04;25.00;34.50
21801;DHT22;11062;51.164;16.924;2023-01-16T18:02:30;25.20;34.20
21801;DHT22;11062;51.164;16.924;2023-01-16T18:04:57;25.40;34.10
21801;DHT22;11062;51.164;16.924;2023-01-16T18:07:23;25.50;33.90
21801;DHT22;11062;51.164;16.924;2023-01-16T18:09:49;25.50;33.90
21801;DHT22;11062;51.164;16.924;2023-01-16T18:12:17;25.50;33.80
21801;DHT22;11062;51.164;16.924;2023-01-16T18:15:02;25.30;33.80
21801;DHT22;11062;51.164;16.924;2023-01-16T18:17:47;25.50;34.00
21801;DHT22;11062;51.164;16.924;2023-01-16T18:20:12;25.50;34.00
21801;DHT22;11062;51.164;16.924;2023-01-16T18:22:39;25.30;33.70
21801;DHT22;11062;51.164;16.924;2023-01-16T18:25:06;25.60;33.70
21801;DHT22;11062;51.164;16.924;2023-01-16T18:27:35;25.70;33.60
21801;DHT22;11062;51.164;16.924;2023-01-16T18:30:05;25.70;33.50
21801;DHT22;11062;51.164;16.924;2023-01-16T18:32:31;25.90;33.40
21801;DHT22;11062;51.164;16.924;2023-01-16T18:35:03;25.80;33.20
21801;DHT22;11062;51.164;16.924;2023-01-16T18:37:35;26.00;33.20
21801;DHT22;11062;51.164;16.924;2023-01-16T18:40:03;25.90;33.30
21801;DHT22;11062;51.164;16.924;2023-01-16T18:42:48;26.00;33.40
21801;DHT22;11062;51.164;16.924;2023-01-16T18:45:32;25.90;33.40
21801;DHT22;11062;51.164;16.924;2023-01-16T18:48:17;25.90;33.50
21801;DHT22;11062;51.164;16.924;2023-01-16T18:51:04;25.90;33.50
21801;DHT22;11062;51.164;16.924;2023-01-16T18:53:50;25.90;33.70
21801;DHT22;11062;51.164;16.924;2023-01-16T18:56:37;25.90;33.90
21801;DHT22;11062;51.164;16.924;2023-01-16T18:59:27;25.90;33.90
21801;DHT22;11062;51.164;16.924;2023-01-16T19:04:49;25.80;33.80
21801;DHT22;11062;51.164;16.924;2023-01-16T19:07:18;25.60;33.70
21801;DHT22;11062;51.164;16.924;2023-01-16T19:09:52;25.80;33.90